createdAt,value
2022-08-05T00:00:30.033Z,0.00
2022-08-05T00:01:29.341Z,0.00
2022-08-05T00:02:30.028Z,0.00
2022-08-05T00:03:29.009Z,0.00
2022-08-05T00:04:29.021Z,0.00
2022-08-05T00:06:02.890Z,0.00
2022-08-05T00:06:33.245Z,0.00
2022-08-05T00:07:59.664Z,0.00
2022-08-05T00:08:34.395Z,0.00
2022-08-05T00:09:29.982Z,0.00
2022-08-05T00:10:28.923Z,0.00
2022-08-05T00:11:30.598Z,0.00
2022-08-05T00:12:29.903Z,0.00
2022-08-05T00:13:38.360Z,0.00
2022-08-05T00:14:31.445Z,0.00
2022-08-05T00:15:58.207Z,0.00
2022-08-05T00:16:35.365Z,0.00
2022-08-05T00:17:30.041Z,0.00
2022-08-05T00:18:28.879Z,0.00
2022-08-05T00:19:33.432Z,0.00
2022-08-05T00:20:29.835Z,0.00
2022-08-05T00:21:30.669Z,0.00
2022-08-05T00:22:28.797Z,0.00
2022-08-05T00:23:44.659Z,0.00
2022-08-05T00:24:30.919Z,0.00
2022-08-05T00:25:28.765Z,0.00
2022-08-05T00:26:29.771Z,0.00
2022-08-05T00:27:36.262Z,0.00
2022-08-05T00:28:29.962Z,0.00
2022-08-05T00:29:37.764Z,0.00
2022-08-05T00:30:32.116Z,0.00
2022-08-05T00:31:54.113Z,0.00
2022-08-05T00:32:29.695Z,0.00
2022-08-05T00:34:53.755Z,0.00
2022-08-05T00:34:56.126Z,0.00
2022-08-05T00:35:33.325Z,0.00
2022-08-05T00:37:11.023Z,0.00
2022-08-05T00:37:35.839Z,0.00
2022-08-05T00:38:33.920Z,0.00
2022-08-05T00:39:28.706Z,0.00
2022-08-05T00:40:29.598Z,0.00
2022-08-05T00:41:28.613Z,0.00
2022-08-05T00:42:31.535Z,0.00
2022-08-05T00:43:28.579Z,0.00
2022-08-05T00:44:30.848Z,0.00
2022-08-05T00:45:43.033Z,0.00
2022-08-05T00:46:42.508Z,0.00
2022-08-05T00:47:53.129Z,0.00
2022-08-05T00:48:31.431Z,0.00
2022-08-05T00:49:32.847Z,0.00
2022-08-05T00:50:29.498Z,0.00
2022-08-05T00:51:51.258Z,0.00
2022-08-05T00:52:29.470Z,0.00
2022-08-05T00:53:45.141Z,0.00
2022-08-05T00:54:30.160Z,0.00
2022-08-05T00:55:42.217Z,0.00
2022-08-05T00:56:29.422Z,0.00
2022-08-05T00:57:38.456Z,0.00
2022-08-05T00:58:29.421Z,0.00
2022-08-05T00:59:44.289Z,0.00
2022-08-05T01:00:29.430Z,0.00
2022-08-05T01:01:42.613Z,0.00
2022-08-05T01:02:29.361Z,0.00
2022-08-05T01:03:30.920Z,0.00
2022-08-05T01:04:29.962Z,0.00
2022-08-05T01:05:28.330Z,0.00
2022-08-05T01:06:32.462Z,0.00
2022-08-05T01:07:31.844Z,0.00
2022-08-05T01:08:41.838Z,0.00
2022-08-05T01:09:30.356Z,0.00
2022-08-05T01:10:28.272Z,0.00
2022-08-05T01:11:37.086Z,0.00
2022-08-05T01:12:29.918Z,0.00
2022-08-05T01:13:58.788Z,0.00
2022-08-05T01:14:29.264Z,0.00
2022-08-05T01:15:36.198Z,0.00
2022-08-05T01:16:29.202Z,0.00
2022-08-05T01:17:28.195Z,0.00
2022-08-05T01:18:28.177Z,0.00
2022-08-05T01:19:56.443Z,0.00
2022-08-05T01:20:29.176Z,0.00
2022-08-05T01:21:38.118Z,0.00
2022-08-05T01:22:29.136Z,0.00
2022-08-05T01:23:34.883Z,0.00
2022-08-05T01:24:30.175Z,0.00
2022-08-05T01:25:41.050Z,0.00
2022-08-05T01:26:29.112Z,0.00
2022-08-05T01:27:28.124Z,0.00
2022-08-05T01:28:29.066Z,0.00
2022-08-05T01:29:28.056Z,0.00
2022-08-05T01:30:33.747Z,0.00
2022-08-05T01:31:29.065Z,0.00
2022-08-05T01:32:28.018Z,0.00
2022-08-05T01:33:28.008Z,0.00
2022-08-05T01:34:28.997Z,0.00
2022-08-05T01:35:52.239Z,0.00
2022-08-05T01:36:28.968Z,0.00
2022-08-05T01:37:28.138Z,0.00
2022-08-05T01:38:30.011Z,0.00
2022-08-05T01:39:46.341Z,0.00
2022-08-05T01:40:29.169Z,0.00
2022-08-05T01:41:27.921Z,0.00
2022-08-05T01:42:27.957Z,0.00
2022-08-05T01:43:27.898Z,0.00
2022-08-05T01:44:34.215Z,0.00
2022-08-05T01:45:28.869Z,0.00
2022-08-05T01:46:42.868Z,0.00
2022-08-05T01:47:38.986Z,0.00
2022-08-05T01:48:28.829Z,0.00
2022-08-05T01:49:27.828Z,0.00
2022-08-05T01:50:29.641Z,0.00
2022-08-05T01:51:29.414Z,0.00
2022-08-05T01:52:27.789Z,0.00
2022-08-05T01:53:54.710Z,0.00
2022-08-05T01:54:28.760Z,0.00
2022-08-05T01:55:27.757Z,0.00
2022-08-05T01:58:10.381Z,0.00
2022-08-05T01:58:12.869Z,0.00
2022-08-05T01:58:40.242Z,0.00
2022-08-05T01:59:28.710Z,0.00
2022-08-05T02:00:30.305Z,0.00
2022-08-05T02:01:27.722Z,0.00
2022-08-05T02:02:28.411Z,0.00
2022-08-05T02:03:31.907Z,0.00
2022-08-05T02:04:28.671Z,0.00
2022-08-05T02:05:28.729Z,0.00
2022-08-05T02:06:37.151Z,0.00
2022-08-05T02:07:30.384Z,0.00
2022-08-05T02:08:30.869Z,0.00
2022-08-05T02:09:28.259Z,0.00
2022-08-05T02:10:28.679Z,0.00
2022-08-05T02:11:33.304Z,0.00
2022-08-05T02:12:28.567Z,0.00
2022-08-05T02:13:27.552Z,0.00
2022-08-05T02:14:28.531Z,0.00
2022-08-05T02:15:33.352Z,0.00
2022-08-05T02:16:28.525Z,0.00
2022-08-05T02:18:27.624Z,0.00
2022-08-05T02:18:34.556Z,0.00
2022-08-05T02:19:28.482Z,0.00
2022-08-05T02:20:28.470Z,0.00
2022-08-05T02:21:27.480Z,0.00
2022-08-05T02:22:27.539Z,0.00
2022-08-05T02:23:27.461Z,0.00
2022-08-05T02:24:27.422Z,0.00
2022-08-05T02:25:27.421Z,0.00
2022-08-05T02:26:28.421Z,0.00
2022-08-05T02:27:29.873Z,0.00
2022-08-05T02:28:31.269Z,0.00
2022-08-05T02:29:58.626Z,0.00
2022-08-05T02:30:28.344Z,0.00
2022-08-05T02:31:28.331Z,0.00
2022-08-05T02:32:30.540Z,0.00
2022-08-05T02:33:38.359Z,0.00
2022-08-05T02:34:28.304Z,0.00
2022-08-05T02:35:28.000Z,0.00
2022-08-05T02:36:31.185Z,0.00
2022-08-05T02:37:27.353Z,0.00
2022-08-05T02:38:27.255Z,0.00
2022-08-05T02:39:28.293Z,0.00
2022-08-05T02:40:27.519Z,0.00
2022-08-05T02:41:28.771Z,0.00
2022-08-05T02:42:31.892Z,0.00
2022-08-05T02:43:28.213Z,0.00
2022-08-05T02:44:27.185Z,0.00
2022-08-05T02:45:27.176Z,0.00
2022-08-05T02:46:27.720Z,0.00
2022-08-05T02:48:06.901Z,0.00
2022-08-05T02:48:29.675Z,0.00
2022-08-05T02:49:27.136Z,0.00
2022-08-05T02:50:28.124Z,0.00
2022-08-05T02:51:28.163Z,0.00
2022-08-05T02:52:30.641Z,0.00
2022-08-05T02:53:27.097Z,0.00
2022-08-05T02:54:35.845Z,0.00
2022-08-05T02:55:54.358Z,0.00
2022-08-05T02:56:28.059Z,0.00
2022-08-05T02:58:09.654Z,0.00
2022-08-05T02:58:28.855Z,0.00
2022-08-05T02:59:27.831Z,0.00
2022-08-05T03:00:27.112Z,0.00
2022-08-05T03:01:27.314Z,0.00
2022-08-05T03:02:27.470Z,0.00
2022-08-05T03:03:26.987Z,0.00
2022-08-05T03:04:27.969Z,0.00
2022-08-05T03:06:56.472Z,0.00
2022-08-05T03:06:56.562Z,0.00
2022-08-05T03:07:59.392Z,0.00
2022-08-05T03:08:30.057Z,0.00
2022-08-05T03:09:37.648Z,0.00
2022-08-05T03:10:27.920Z,0.00
2022-08-05T03:11:56.586Z,0.00
2022-08-05T03:12:27.880Z,0.00
2022-08-05T03:13:27.686Z,0.00
2022-08-05T03:14:27.859Z,0.00
2022-08-05T03:15:26.850Z,0.00
2022-08-05T03:16:26.881Z,0.00
2022-08-05T03:17:26.942Z,0.00
2022-08-05T03:18:30.029Z,0.00
2022-08-05T03:19:34.121Z,0.00
2022-08-05T03:20:27.790Z,0.00
2022-08-05T03:21:28.675Z,0.00
2022-08-05T03:22:32.210Z,0.00
2022-08-05T03:23:27.767Z,0.00
2022-08-05T03:24:30.011Z,0.00
2022-08-05T03:25:32.376Z,0.00
2022-08-05T03:26:30.913Z,0.00
2022-08-05T03:27:39.299Z,0.00
2022-08-05T03:28:27.722Z,0.00
2022-08-05T03:29:44.606Z,0.00
2022-08-05T03:30:30.123Z,0.00
2022-08-05T03:31:56.721Z,0.00
2022-08-05T03:32:31.047Z,0.00
2022-08-05T03:33:42.346Z,0.00
2022-08-05T03:34:27.651Z,0.00
2022-08-05T03:35:26.633Z,0.00
2022-08-05T03:36:30.612Z,0.00
2022-08-05T03:37:26.883Z,0.00
2022-08-05T03:38:33.195Z,0.00
2022-08-05T03:39:27.788Z,0.00
2022-08-05T03:40:32.037Z,0.00
2022-08-05T03:41:33.286Z,0.00
2022-08-05T03:42:28.906Z,0.00
2022-08-05T03:44:09.202Z,0.00
2022-08-05T03:44:29.083Z,0.00
2022-08-05T03:45:26.536Z,0.00
2022-08-05T03:46:29.585Z,0.00
2022-08-05T03:47:26.531Z,0.00
2022-08-05T03:48:27.476Z,0.00
2022-08-05T03:49:52.150Z,0.00
2022-08-05T03:50:30.181Z,0.00
2022-08-05T03:52:37.709Z,0.00
2022-08-05T03:52:39.200Z,0.00
2022-08-05T03:55:00.468Z,0.00
2022-08-05T03:55:54.775Z,0.00
2022-08-05T03:56:04.946Z,0.00
2022-08-05T03:56:34.783Z,0.00
2022-08-05T03:57:35.135Z,0.00
2022-08-05T03:58:29.147Z,0.00
2022-08-05T03:59:26.355Z,0.00
2022-08-05T04:00:26.348Z,0.00
2022-08-05T04:01:26.395Z,0.00
2022-08-05T04:02:38.905Z,0.00
2022-08-05T04:03:28.733Z,0.00
2022-08-05T04:04:26.568Z,0.00
2022-08-05T04:05:27.947Z,0.00
2022-08-05T04:06:27.319Z,0.00
2022-08-05T04:07:26.267Z,5.62
2022-08-05T04:08:35.207Z,5.62
2022-08-05T04:09:27.244Z,5.62
2022-08-05T04:10:27.911Z,5.62
2022-08-05T04:11:50.409Z,5.62
2022-08-05T04:12:27.291Z,5.62
2022-08-05T04:13:26.205Z,11.25
2022-08-05T04:14:29.789Z,11.25
2022-08-05T04:15:26.178Z,11.25
2022-08-05T04:16:32.597Z,11.25
2022-08-05T04:17:55.705Z,11.25
2022-08-05T04:18:27.165Z,11.25
2022-08-05T04:19:26.134Z,11.25
2022-08-05T04:20:26.126Z,16.88
2022-08-05T04:22:09.084Z,22.50
2022-08-05T04:22:27.108Z,22.50
2022-08-05T04:23:57.124Z,28.12
2022-08-05T04:24:27.607Z,33.75
2022-08-05T04:25:57.759Z,39.38
2022-08-05T04:26:27.058Z,50.62
2022-08-05T04:27:41.703Z,61.88
2022-08-05T04:28:28.577Z,61.88
2022-08-05T04:29:27.157Z,56.25
2022-08-05T04:30:26.560Z,45.00
2022-08-05T04:31:27.712Z,39.38
2022-08-05T04:32:31.014Z,28.12
2022-08-05T04:34:18.782Z,22.50
2022-08-05T04:34:33.443Z,22.50
2022-08-05T04:35:26.949Z,16.88
2022-08-05T04:36:45.961Z,16.88
2022-08-05T04:38:02.070Z,11.25
2022-08-05T04:38:39.561Z,11.25
2022-08-05T04:39:27.590Z,11.25
2022-08-05T04:40:25.914Z,11.25
2022-08-05T04:41:36.697Z,5.62
2022-08-05T04:42:26.880Z,5.62
2022-08-05T04:43:25.978Z,5.62
2022-08-05T04:44:29.467Z,5.62
2022-08-05T04:45:47.812Z,5.62
2022-08-05T04:46:27.841Z,5.62
2022-08-05T04:47:26.181Z,5.62
2022-08-05T04:48:27.649Z,5.62
2022-08-05T04:49:38.850Z,5.62
2022-08-05T04:50:34.387Z,5.62
2022-08-05T04:51:30.317Z,5.62
2022-08-05T04:52:27.381Z,5.62
2022-08-05T04:53:25.752Z,5.62
2022-08-05T04:54:25.741Z,5.62
2022-08-05T04:56:14.501Z,5.62
2022-08-05T04:56:34.553Z,11.25
2022-08-05T04:57:29.250Z,11.25
2022-08-05T04:58:25.694Z,11.25
2022-08-05T04:59:38.807Z,11.25
2022-08-05T05:00:26.682Z,11.25
2022-08-05T05:02:05.445Z,11.25
2022-08-05T05:02:37.508Z,11.25
2022-08-05T05:03:26.646Z,11.25
2022-08-05T05:04:26.635Z,16.88
2022-08-05T05:05:28.906Z,22.50
2022-08-05T05:06:39.907Z,28.12
2022-08-05T05:07:29.367Z,33.75
2022-08-05T05:08:30.393Z,39.38
2022-08-05T05:09:25.591Z,56.25
2022-08-05T05:10:25.594Z,73.12
2022-08-05T05:11:25.548Z,90.00
2022-08-05T05:12:27.229Z,106.88
2022-08-05T05:13:25.525Z,118.12
2022-08-05T05:14:28.069Z,123.75
2022-08-05T05:16:01.938Z,135.00
2022-08-05T05:16:30.452Z,140.62
2022-08-05T05:17:56.485Z,151.88
2022-08-05T05:18:30.982Z,163.12
2022-08-05T05:19:27.439Z,168.75
2022-08-05T05:20:28.346Z,180.00
2022-08-05T05:21:27.075Z,191.25
2022-08-05T05:22:26.517Z,202.50
2022-08-05T05:23:25.415Z,213.75
2022-08-05T05:24:56.165Z,225.00
2022-08-05T05:25:32.658Z,236.25
2022-08-05T05:26:28.768Z,264.38
2022-08-05T05:27:44.750Z,298.12
2022-08-05T05:28:26.358Z,326.25
2022-08-05T05:29:25.347Z,354.38
2022-08-05T05:30:29.263Z,376.88
2022-08-05T05:31:25.318Z,455.62
2022-08-05T05:32:25.317Z,421.88
2022-08-05T05:33:25.298Z,382.50
2022-08-05T05:34:27.095Z,365.62
2022-08-05T05:35:25.298Z,365.62
2022-08-05T05:36:25.277Z,410.62
2022-08-05T05:37:37.199Z,433.12
2022-08-05T05:38:27.445Z,376.88
2022-08-05T05:39:25.300Z,337.50
2022-08-05T05:40:26.254Z,326.25
2022-08-05T05:41:25.215Z,275.62
2022-08-05T05:42:26.208Z,219.38
2022-08-05T05:43:57.319Z,180.00
2022-08-05T05:44:36.484Z,163.12
2022-08-05T05:45:26.160Z,168.75
2022-08-05T05:46:25.172Z,213.75
2022-08-05T05:47:30.557Z,241.88
2022-08-05T05:48:27.301Z,258.75
2022-08-05T05:49:25.129Z,253.12
2022-08-05T05:50:25.871Z,275.62
2022-08-05T05:51:25.539Z,298.12
2022-08-05T05:52:25.479Z,343.12
2022-08-05T05:53:25.081Z,365.62
2022-08-05T05:54:50.843Z,376.88
2022-08-05T05:55:52.030Z,421.88
2022-08-05T05:56:31.519Z,489.38
2022-08-05T05:57:26.168Z,607.50
2022-08-05T05:58:31.826Z,652.50
2022-08-05T05:59:26.011Z,613.12
2022-08-05T06:00:27.525Z,534.38
2022-08-05T06:01:28.340Z,421.88
2022-08-05T06:02:32.685Z,331.88
2022-08-05T06:03:28.624Z,309.38
2022-08-05T06:04:25.991Z,331.88
2022-08-05T06:05:24.972Z,331.88
2022-08-05T06:06:24.933Z,286.88
2022-08-05T06:07:42.032Z,225.00
2022-08-05T06:08:32.642Z,225.00
2022-08-05T06:09:51.358Z,230.62
2022-08-05T06:10:25.894Z,236.25
2022-08-05T06:11:24.874Z,236.25
2022-08-05T06:12:27.168Z,213.75
2022-08-05T06:13:24.882Z,191.25
2022-08-05T06:14:24.843Z,185.62
2022-08-05T06:15:24.836Z,219.38
2022-08-05T06:16:28.596Z,247.50
2022-08-05T06:17:31.023Z,303.75
2022-08-05T06:18:31.286Z,365.62
2022-08-05T06:19:26.246Z,416.25
2022-08-05T06:20:25.787Z,483.75
2022-08-05T06:21:24.763Z,551.25
2022-08-05T06:22:25.756Z,568.12
2022-08-05T06:23:24.765Z,568.12
2022-08-05T06:24:27.253Z,601.88
2022-08-05T06:26:12.813Z,562.50
2022-08-05T06:26:25.718Z,376.88
2022-08-05T06:28:11.407Z,286.88
2022-08-05T06:28:28.436Z,253.12
2022-08-05T06:29:46.464Z,258.75
2022-08-05T06:30:25.695Z,298.12
2022-08-05T06:31:32.180Z,326.25
2022-08-05T06:32:29.106Z,292.50
2022-08-05T06:33:33.255Z,247.50
2022-08-05T06:34:26.466Z,225.00
2022-08-05T06:36:07.664Z,213.75
2022-08-05T06:36:25.968Z,202.50
2022-08-05T06:37:56.725Z,196.88
2022-08-05T06:38:36.134Z,191.25
2022-08-05T06:39:27.083Z,196.88
2022-08-05T06:40:28.048Z,196.88
2022-08-05T06:41:25.559Z,196.88
2022-08-05T06:42:24.542Z,213.75
2022-08-05T06:43:57.867Z,247.50
2022-08-05T06:44:25.515Z,309.38
2022-08-05T06:45:44.944Z,382.50
2022-08-05T06:46:30.219Z,433.12
2022-08-05T06:48:11.435Z,461.25
2022-08-05T06:48:56.186Z,483.75
2022-08-05T06:50:00.789Z,590.62
2022-08-05T06:50:25.450Z,787.50
2022-08-05T06:51:30.114Z,1046.25
2022-08-05T06:52:36.618Z,1046.25
2022-08-05T06:53:28.252Z,551.25
2022-08-05T06:54:25.968Z,405.00
2022-08-05T06:55:24.393Z,309.38
2022-08-05T06:56:26.586Z,281.25
2022-08-05T06:58:03.858Z,337.50
2022-08-05T06:58:35.141Z,371.25
2022-08-05T06:59:25.336Z,382.50
2022-08-05T07:00:24.821Z,365.62
2022-08-05T07:01:32.088Z,326.25
2022-08-05T07:02:25.314Z,298.12
2022-08-05T07:03:32.341Z,298.12
2022-08-05T07:04:25.321Z,320.62
2022-08-05T07:05:27.676Z,393.75
2022-08-05T07:06:25.265Z,450.00
2022-08-05T07:07:35.443Z,500.62
2022-08-05T07:08:25.259Z,556.88
2022-08-05T07:09:24.921Z,607.50
2022-08-05T07:10:24.286Z,641.25
2022-08-05T07:11:25.639Z,680.62
2022-08-05T07:12:24.200Z,753.75
2022-08-05T07:13:39.460Z,950.62
2022-08-05T07:14:30.251Z,1653.75
2022-08-05T07:15:34.683Z,1726.88
2022-08-05T07:17:56.257Z,995.62
2022-08-05T07:18:02.048Z,838.12
2022-08-05T07:18:29.079Z,1985.62
2022-08-05T07:20:10.550Z,2407.50
2022-08-05T07:20:34.146Z,2210.62
2022-08-05T07:21:25.742Z,2160.00
2022-08-05T07:22:28.631Z,1833.75
2022-08-05T07:23:26.419Z,1462.50
2022-08-05T07:24:25.058Z,1080.00
2022-08-05T07:25:56.203Z,1153.12
2022-08-05T07:26:25.870Z,1288.12
2022-08-05T07:27:27.780Z,1445.62
2022-08-05T07:28:25.029Z,1327.50
2022-08-05T07:30:21.884Z,1181.25
2022-08-05T07:30:31.705Z,646.88
2022-08-05T07:31:40.832Z,517.50
2022-08-05T07:32:26.240Z,495.00
2022-08-05T07:33:36.561Z,523.12
2022-08-05T07:34:28.593Z,540.00
2022-08-05T07:36:05.058Z,540.00
2022-08-05T07:36:24.941Z,562.50
2022-08-05T07:37:24.153Z,517.50
2022-08-05T07:38:33.720Z,489.38
2022-08-05T07:40:04.362Z,483.75
2022-08-05T07:40:31.968Z,472.50
2022-08-05T07:42:07.481Z,618.75
2022-08-05T07:42:31.478Z,669.38
2022-08-05T07:43:24.871Z,720.00
2022-08-05T07:44:23.843Z,759.38
2022-08-05T07:45:56.628Z,770.62
2022-08-05T07:46:25.837Z,810.00
2022-08-05T07:47:25.864Z,905.62
2022-08-05T07:49:00.821Z,945.00
2022-08-05T07:49:24.784Z,956.25
2022-08-05T07:50:28.844Z,922.50
2022-08-05T07:51:37.281Z,866.25
2022-08-05T07:52:24.753Z,843.75
2022-08-05T07:53:23.739Z,821.25
2022-08-05T07:54:26.594Z,810.00
2022-08-05T07:56:05.869Z,793.12
2022-08-05T07:57:01.343Z,781.88
2022-08-05T07:57:58.956Z,798.75
2022-08-05T07:58:57.447Z,815.62
2022-08-05T07:59:38.311Z,877.50
2022-08-05T08:00:24.665Z,961.88
2022-08-05T08:01:23.726Z,1158.75
2022-08-05T08:02:26.397Z,1141.88
2022-08-05T08:03:24.628Z,1085.62
2022-08-05T08:04:38.112Z,1091.25
2022-08-05T08:05:24.606Z,1102.50
2022-08-05T08:06:23.593Z,1018.12
2022-08-05T08:07:23.634Z,928.12
2022-08-05T08:08:23.567Z,838.12
2022-08-05T08:09:23.566Z,815.62
2022-08-05T08:10:23.617Z,798.75
2022-08-05T08:11:27.509Z,776.25
2022-08-05T08:12:36.903Z,787.50
2022-08-05T08:13:29.197Z,855.00
2022-08-05T08:14:24.510Z,826.88
2022-08-05T08:16:35.233Z,798.75
2022-08-05T08:16:35.948Z,883.12
2022-08-05T08:17:24.622Z,765.00
2022-08-05T08:18:23.469Z,748.12
2022-08-05T08:20:21.652Z,770.62
2022-08-05T08:20:59.832Z,821.25
2022-08-05T08:21:24.431Z,826.88
2022-08-05T08:22:23.431Z,810.00
2022-08-05T08:24:02.598Z,826.88
2022-08-05T08:24:45.984Z,849.38
2022-08-05T08:25:26.913Z,871.88
2022-08-05T08:26:29.426Z,888.75
2022-08-05T08:27:40.360Z,871.88
2022-08-05T08:28:36.067Z,843.75
2022-08-05T08:30:06.115Z,804.38
2022-08-05T08:30:32.700Z,787.50
2022-08-05T08:31:24.333Z,770.62
2022-08-05T08:32:28.100Z,770.62
2022-08-05T08:33:24.323Z,770.62
2022-08-05T08:34:30.693Z,765.00
2022-08-05T08:35:26.671Z,753.75
2022-08-05T08:36:38.830Z,708.75
2022-08-05T08:37:28.042Z,669.38
2022-08-05T08:38:35.199Z,624.38
2022-08-05T08:39:24.292Z,601.88
2022-08-05T08:40:23.224Z,585.00
2022-08-05T08:41:26.287Z,551.25
2022-08-05T08:42:34.446Z,540.00
2022-08-05T08:45:22.625Z,540.00
2022-08-05T08:45:25.239Z,545.62
2022-08-05T08:45:27.096Z,551.25
2022-08-05T08:46:24.160Z,556.88
2022-08-05T08:48:06.233Z,562.50
2022-08-05T08:49:04.201Z,579.38
2022-08-05T08:50:14.572Z,596.25
2022-08-05T08:50:52.574Z,613.12
2022-08-05T08:52:03.214Z,618.75
2022-08-05T08:52:24.379Z,641.25
2022-08-05T08:53:23.086Z,663.75
2022-08-05T08:54:27.404Z,703.12
2022-08-05T08:56:01.924Z,753.75
2022-08-05T08:56:26.990Z,815.62
2022-08-05T08:57:23.036Z,911.25
2022-08-05T08:58:26.057Z,967.50
2022-08-05T08:59:27.542Z,950.62
2022-08-05T09:00:24.025Z,956.25
2022-08-05T09:01:23.030Z,984.38
2022-08-05T09:02:26.560Z,1035.00
2022-08-05T09:03:22.969Z,1035.00
2022-08-05T09:04:22.958Z,961.88
2022-08-05T09:05:38.618Z,995.62
2022-08-05T09:06:24.158Z,995.62
2022-08-05T09:07:29.081Z,933.75
2022-08-05T09:08:26.630Z,860.62
2022-08-05T09:09:22.912Z,911.25
2022-08-05T09:10:27.798Z,933.75
2022-08-05T09:11:53.042Z,956.25
2022-08-05T09:12:27.313Z,826.88
2022-08-05T09:13:23.872Z,669.38
2022-08-05T09:14:57.715Z,748.12
2022-08-05T09:15:23.841Z,787.50
2022-08-05T09:16:22.824Z,787.50
2022-08-05T09:17:40.516Z,838.12
2022-08-05T09:18:23.811Z,838.12
2022-08-05T09:19:27.662Z,815.62
2022-08-05T09:20:37.736Z,832.50
2022-08-05T09:22:21.798Z,855.00
2022-08-05T09:22:32.051Z,905.62
2022-08-05T09:23:23.763Z,1074.38
2022-08-05T09:24:24.300Z,1400.62
2022-08-05T09:25:24.376Z,2030.62
2022-08-05T09:26:23.716Z,2120.62
2022-08-05T09:28:04.449Z,1485.00
2022-08-05T09:28:23.686Z,1327.50
2022-08-05T09:29:30.937Z,1203.75
2022-08-05T09:30:23.807Z,1102.50
2022-08-05T09:32:40.886Z,1046.25
2022-08-05T09:32:42.351Z,1051.88
2022-08-05T09:33:23.637Z,1006.88
2022-08-05T09:34:23.627Z,984.38
2022-08-05T09:35:26.659Z,967.50
2022-08-05T09:36:27.916Z,973.12
2022-08-05T09:38:17.763Z,973.12
2022-08-05T09:38:27.717Z,961.88
2022-08-05T09:39:23.666Z,945.00
2022-08-05T09:40:23.615Z,928.12
2022-08-05T09:41:22.560Z,950.62
2022-08-05T09:42:24.166Z,984.38
2022-08-05T09:43:23.529Z,978.75
2022-08-05T09:44:22.520Z,956.25
2022-08-05T09:46:07.454Z,950.62
2022-08-05T09:46:27.952Z,945.00
2022-08-05T09:47:22.515Z,939.38
2022-08-05T09:48:22.501Z,939.38
2022-08-05T09:49:22.492Z,933.75
2022-08-05T09:50:37.506Z,922.50
2022-08-05T09:51:23.471Z,900.00
2022-08-05T09:52:22.749Z,860.62
2022-08-05T09:53:26.148Z,860.62
2022-08-05T09:54:28.976Z,855.00
2022-08-05T09:55:57.872Z,860.62
2022-08-05T09:56:23.393Z,860.62
2022-08-05T09:58:12.478Z,843.75
2022-08-05T09:59:17.018Z,849.38
2022-08-05T10:00:12.459Z,849.38
2022-08-05T10:01:15.364Z,838.12
2022-08-05T10:02:13.523Z,855.00
2022-08-05T10:03:12.420Z,866.25
2022-08-05T10:04:12.437Z,866.25
2022-08-05T10:05:12.420Z,877.50
2022-08-05T10:06:15.469Z,888.75
2022-08-05T10:07:31.893Z,877.50
2022-08-05T10:08:37.588Z,877.50
2022-08-05T10:09:27.837Z,894.38
2022-08-05T10:10:15.625Z,922.50
2022-08-05T10:11:12.335Z,950.62
2022-08-05T10:12:30.757Z,950.62
2022-08-05T10:13:14.631Z,939.38
2022-08-05T10:14:12.311Z,922.50
2022-08-05T10:15:12.294Z,900.00
2022-08-05T10:16:12.306Z,888.75
2022-08-05T10:17:14.089Z,888.75
2022-08-05T10:18:13.264Z,888.75
2022-08-05T10:19:12.245Z,894.38
2022-08-05T10:20:12.242Z,900.00
2022-08-05T10:21:16.438Z,911.25
2022-08-05T10:22:15.718Z,905.62
2022-08-05T10:23:34.677Z,900.00
2022-08-05T10:24:13.628Z,894.38
2022-08-05T10:25:14.463Z,883.12
2022-08-05T10:26:13.953Z,877.50
2022-08-05T10:27:12.184Z,871.88
2022-08-05T10:28:17.226Z,860.62
2022-08-05T10:29:13.149Z,855.00
2022-08-05T10:31:20.969Z,855.00
2022-08-05T10:32:53.401Z,849.38
2022-08-05T10:33:01.410Z,855.00
2022-08-05T10:33:14.937Z,838.12
2022-08-05T10:34:12.088Z,821.25
2022-08-05T10:35:12.068Z,798.75
2022-08-05T10:36:12.070Z,787.50
2022-08-05T10:37:12.070Z,776.25
2022-08-05T10:38:12.044Z,781.88
2022-08-05T10:39:15.194Z,787.50
2022-08-05T10:40:17.977Z,804.38
2022-08-05T10:41:13.865Z,815.62
2022-08-05T10:42:12.000Z,821.25
2022-08-05T10:43:12.447Z,826.88
2022-08-05T10:44:11.997Z,826.88
2022-08-05T10:45:23.591Z,815.62
2022-08-05T10:46:12.951Z,798.75
2022-08-05T10:47:27.016Z,798.75
2022-08-05T10:48:31.695Z,810.00
2022-08-05T10:49:16.902Z,815.62
2022-08-05T10:50:32.251Z,815.62
2022-08-05T10:51:22.037Z,810.00
2022-08-05T10:52:12.892Z,815.62
2022-08-05T10:53:11.885Z,821.25
2022-08-05T10:54:28.882Z,826.88
2022-08-05T10:55:16.133Z,821.25
2022-08-05T10:56:21.151Z,815.62
2022-08-05T10:57:12.838Z,810.00
2022-08-05T10:58:11.827Z,810.00
2022-08-05T10:59:12.492Z,815.62
2022-08-05T11:00:18.506Z,815.62
2022-08-05T11:01:12.795Z,804.38
2022-08-05T11:02:14.124Z,776.25
2022-08-05T11:03:23.148Z,765.00
2022-08-05T11:04:12.803Z,770.62
2022-08-05T11:05:11.746Z,770.62
2022-08-05T11:06:15.362Z,793.12
2022-08-05T11:07:11.977Z,826.88
2022-08-05T11:08:36.527Z,810.00
2022-08-05T11:09:13.225Z,793.12
2022-08-05T11:10:11.694Z,691.88
2022-08-05T11:11:16.475Z,635.62
2022-08-05T11:12:12.678Z,652.50
2022-08-05T11:13:11.667Z,646.88
2022-08-05T11:14:11.718Z,669.38
2022-08-05T11:15:20.402Z,624.38
2022-08-05T11:16:12.626Z,534.38
2022-08-05T11:17:57.116Z,427.50
2022-08-05T11:18:12.972Z,444.38
2022-08-05T11:20:16.826Z,466.88
2022-08-05T11:20:18.313Z,382.50
2022-08-05T11:21:12.569Z,337.50
2022-08-05T11:22:11.559Z,348.75
2022-08-05T11:23:11.592Z,309.38
2022-08-05T11:24:14.737Z,241.88
2022-08-05T11:26:03.458Z,185.62
2022-08-05T11:26:12.520Z,151.88
2022-08-05T11:27:11.502Z,157.50
2022-08-05T11:28:11.514Z,191.25
2022-08-05T11:29:14.341Z,219.38
2022-08-05T11:30:11.464Z,331.88
2022-08-05T11:31:11.464Z,551.25
2022-08-05T11:32:12.442Z,646.88
2022-08-05T11:33:20.858Z,630.00
2022-08-05T11:34:14.745Z,641.25
2022-08-05T11:35:11.421Z,708.75
2022-08-05T11:36:11.403Z,765.00
2022-08-05T11:38:26.315Z,753.75
2022-08-05T11:38:28.626Z,815.62
2022-08-05T11:39:12.429Z,838.12
2022-08-05T11:40:11.364Z,742.50
2022-08-05T11:41:34.815Z,714.38
2022-08-05T11:42:12.336Z,680.62
2022-08-05T11:43:12.327Z,573.75
2022-08-05T11:44:11.315Z,511.88
2022-08-05T11:45:14.558Z,382.50
2022-08-05T11:46:30.624Z,275.62
2022-08-05T11:47:15.233Z,202.50
2022-08-05T11:48:12.275Z,146.25
2022-08-05T11:49:11.267Z,112.50
2022-08-05T11:50:14.334Z,112.50
2022-08-05T11:51:11.257Z,140.62
2022-08-05T11:52:12.260Z,213.75
2022-08-05T11:53:11.225Z,309.38
2022-08-05T11:54:11.216Z,427.50
2022-08-05T11:55:11.198Z,607.50
2022-08-05T11:56:11.321Z,871.88
2022-08-05T11:57:24.926Z,1063.12
2022-08-05T11:58:12.242Z,1175.62
2022-08-05T11:59:13.837Z,1192.50
2022-08-05T12:00:11.149Z,1186.88
2022-08-05T12:01:11.159Z,1136.25
2022-08-05T12:02:12.107Z,1035.00
2022-08-05T12:03:12.166Z,967.50
2022-08-05T12:04:11.099Z,950.62
2022-08-05T12:05:17.999Z,933.75
2022-08-05T12:06:12.100Z,916.88
2022-08-05T12:07:11.070Z,928.12
2022-08-05T12:08:11.653Z,950.62
2022-08-05T12:09:19.921Z,973.12
2022-08-05T12:10:12.085Z,967.50
2022-08-05T12:11:11.023Z,973.12
2022-08-05T12:12:12.031Z,939.38
2022-08-05T12:13:13.961Z,961.88
2022-08-05T12:14:11.995Z,973.12
2022-08-05T12:15:15.124Z,950.62
2022-08-05T12:16:15.028Z,928.12
2022-08-05T12:17:13.092Z,905.62
2022-08-05T12:18:12.414Z,871.88
2022-08-05T12:19:10.936Z,860.62
2022-08-05T12:20:16.790Z,826.88
2022-08-05T12:21:12.283Z,748.12
2022-08-05T12:22:10.903Z,607.50
2022-08-05T12:23:11.004Z,585.00
2022-08-05T12:24:10.903Z,562.50
2022-08-05T12:25:14.375Z,517.50
2022-08-05T12:26:11.858Z,489.38
2022-08-05T12:27:21.505Z,506.25
2022-08-05T12:28:11.836Z,585.00
2022-08-05T12:29:11.869Z,579.38
2022-08-05T12:30:15.318Z,630.00
2022-08-05T12:31:10.807Z,748.12
2022-08-05T12:32:11.797Z,776.25
2022-08-05T12:33:27.427Z,753.75
2022-08-05T12:34:14.622Z,697.50
2022-08-05T12:35:11.787Z,646.88
2022-08-05T12:36:11.760Z,607.50
2022-08-05T12:37:10.796Z,635.62
2022-08-05T12:38:11.730Z,624.38
2022-08-05T12:39:10.766Z,596.25
2022-08-05T12:40:11.329Z,590.62
2022-08-05T12:41:13.238Z,568.12
2022-08-05T12:42:14.847Z,534.38
2022-08-05T12:43:10.668Z,545.62
2022-08-05T12:44:11.541Z,562.50
2022-08-05T12:45:10.663Z,618.75
2022-08-05T12:46:12.484Z,663.75